CheckWX is a tool to help pilots better visualize weather data.  It is not intended as a substitute for an official pre-flight weather briefing.

09:36:27 UTC

EFJO TAF
Joensuu Airport
Joensuu / Liperi, Finland
TAF EFJO 200836Z 2009/2018 22006KT 3000 -SN BKN004 BECMG 2010/2012 BKN010 TEMPO 2012/2015 BKN015 TEMPO 2016/2018 2500 -SN

Mar-20@
09:00 UTC

Mar-20 @ 09:00 UTC

Mar-20@
10:00 UTC

Mar-20 @ 10:00 UTC

TAF EFJO 200836Z 2009/2018 22006KT 3000 -SN BKN004
Wind
  • 220° at 6 KTS
Conditions
Light Snow
Cloud Levels
  • Broken at 400' AGL

Mar-20@
10:00 UTC

Mar-20 @ 10:00 UTC

Mar-20@
18:00 UTC

Mar-20 @ 18:00 UTC

BECMG 2010/2012 BKN010

Becoming

Becoming Conditions expected by Wed, Mar 20, 2019 @ 12:00 UTC

Wind
  • 220° at 6 KTS
Conditions
Light Snow
Cloud Levels
  • Broken at 1,000' AGL

Mar-20@
12:00 UTC

Mar-20 @ 12:00 UTC

Mar-20@
15:00 UTC

Mar-20 @ 15:00 UTC

TEMPO 2012/2015 BKN015

Temporary

Temporary Changes expected for less than half the time period

Cloud Levels
  • Broken at 1,500' AGL

Mar-20@
16:00 UTC

Mar-20 @ 16:00 UTC

Mar-20@
18:00 UTC

Mar-20 @ 18:00 UTC

TEMPO 2016/2018 2500 -SN

Temporary

Temporary Changes expected for less than half the time period

Conditions
Light Snow